<?xml version="1.0" encoding="utf-8"?>
<gpx xmlns:xsi="http://www.w3.org/2001/XMLSchema-instance" xmlns:xsd="http://www.w3.org/2001/XMLSchema" version="1.1" creator="Shapelink.com" xmlns="http://www.topografix.com/GPX/1/1" xmlns:gpxtpx="http://www.garmin.com/xmlschemas/TrackPointExtension/v1">
  <metadata>
    <name>Övrigt 1.73 km, 2019-04-17</name>
    <desc></desc>
    <author><name>Marian Moron</name></author> 
    <time>2019-04-17T21:35:23Z</time>
  </metadata>
  <trk>
    <name>Övrigt 1.73 km, 2019-04-17</name>
    <trkseg>
      <trkpt lat="51.229822939494" lon="4.457989622652">
        <ele>0</ele>
        <time>2019-04-17T21:35:23Z</time>
      </trkpt>
      <trkpt lat="51.229925031036" lon="4.458198583419">
        <ele>0.8</ele>
        <time>2019-04-17T21:36:00Z</time>
      </trkpt>
      <trkpt lat="51.229952020754" lon="4.458317271123">
        <ele>0.8</ele>
        <time>2019-04-17T21:36:20Z</time>
      </trkpt>
      <trkpt lat="51.229978926653" lon="4.458429672402">
        <ele>0.8</ele>
        <time>2019-04-17T21:36:30Z</time>
      </trkpt>
      <trkpt lat="51.230025781474" lon="4.458575768919">
        <ele>2</ele>
        <time>2019-04-17T21:36:49Z</time>
      </trkpt>
      <trkpt lat="51.230057045961" lon="4.458607368682">
        <ele>3.2</ele>
        <time>2019-04-17T21:36:54Z</time>
      </trkpt>
      <trkpt lat="51.230106080076" lon="4.458811803223">
        <ele>4.4</ele>
        <time>2019-04-17T21:37:06Z</time>
      </trkpt>
      <trkpt lat="51.230304312011" lon="4.458679369203">
        <ele>4</ele>
        <time>2019-04-17T21:37:25Z</time>
      </trkpt>
      <trkpt lat="51.230763807769" lon="4.458589599054">
        <ele>7</ele>
        <time>2019-04-17T21:37:49Z</time>
      </trkpt>
      <trkpt lat="51.231209221935" lon="4.458378961907">
        <ele>5</ele>
        <time>2019-04-17T21:38:12Z</time>
      </trkpt>
      <trkpt lat="51.231373507175" lon="4.458342500642">
        <ele>7</ele>
        <time>2019-04-17T21:38:30Z</time>
      </trkpt>
      <trkpt lat="51.231509042498" lon="4.458345518126">
        <ele>12</ele>
        <time>2019-04-17T21:38:48Z</time>
      </trkpt>
      <trkpt lat="51.231555059129" lon="4.458388936368">
        <ele>12.2</ele>
        <time>2019-04-17T21:38:53Z</time>
      </trkpt>
      <trkpt lat="51.231756643824" lon="4.458908614168">
        <ele>4.6</ele>
        <time>2019-04-17T21:39:28Z</time>
      </trkpt>
      <trkpt lat="51.231805091206" lon="4.459193766406">
        <ele>4.2</ele>
        <time>2019-04-17T21:39:46Z</time>
      </trkpt>
      <trkpt lat="51.231795954935" lon="4.45939375854">
        <ele>4.2</ele>
        <time>2019-04-17T21:39:59Z</time>
      </trkpt>
      <trkpt lat="51.231852868036" lon="4.45976172395">
        <ele>3.4</ele>
        <time>2019-04-17T21:40:23Z</time>
      </trkpt>
      <trkpt lat="51.231870721483" lon="4.459898684196">
        <ele>1.4</ele>
        <time>2019-04-17T21:40:46Z</time>
      </trkpt>
      <trkpt lat="51.231939788339" lon="4.460502600091">
        <ele>0</ele>
        <time>2019-04-17T21:41:36Z</time>
      </trkpt>
      <trkpt lat="51.232033162705" lon="4.460900069789">
        <ele>0</ele>
        <time>2019-04-17T21:42:03Z</time>
      </trkpt>
      <trkpt lat="51.232047579573" lon="4.460927394783">
        <ele>0</ele>
        <time>2019-04-17T21:42:05Z</time>
      </trkpt>
      <trkpt lat="51.232157801558" lon="4.461451934085">
        <ele>0</ele>
        <time>2019-04-17T21:42:46Z</time>
      </trkpt>
      <trkpt lat="51.232235753228" lon="4.461639856283">
        <ele>4.2</ele>
        <time>2019-04-17T21:43:06Z</time>
      </trkpt>
      <trkpt lat="51.232273136502" lon="4.461774721054">
        <ele>8.6</ele>
        <time>2019-04-17T21:43:28Z</time>
      </trkpt>
      <trkpt lat="51.232259725462" lon="4.462030452823">
        <ele>0.8</ele>
        <time>2019-04-17T21:43:43Z</time>
      </trkpt>
      <trkpt lat="51.232278668556" lon="4.462117289307">
        <ele>0.2</ele>
        <time>2019-04-17T21:43:49Z</time>
      </trkpt>
      <trkpt lat="51.232342454815" lon="4.462452062393">
        <ele>0.6</ele>
        <time>2019-04-17T21:44:11Z</time>
      </trkpt>
      <trkpt lat="51.232462986537" lon="4.46312118947">
        <ele>0</ele>
        <time>2019-04-17T21:44:58Z</time>
      </trkpt>
      <trkpt lat="51.232493077558" lon="4.463265944883">
        <ele>0</ele>
        <time>2019-04-17T21:45:05Z</time>
      </trkpt>
      <trkpt lat="51.232502297648" lon="4.463936999797">
        <ele>0.4</ele>
        <time>2019-04-17T21:45:43Z</time>
      </trkpt>
      <trkpt lat="51.232406324893" lon="4.464097932277">
        <ele>3</ele>
        <time>2019-04-17T21:45:56Z</time>
      </trkpt>
      <trkpt lat="51.232276237805" lon="4.464020064426">
        <ele>8.6</ele>
        <time>2019-04-17T21:46:19Z</time>
      </trkpt>
      <trkpt lat="51.231895615726" lon="4.4636299708">
        <ele>17</ele>
        <time>2019-04-17T21:47:15Z</time>
      </trkpt>
      <trkpt lat="51.231797296039" lon="4.463502733558">
        <ele>19.2</ele>
        <time>2019-04-17T21:47:26Z</time>
      </trkpt>
      <trkpt lat="51.231379123048" lon="4.46320333209">
        <ele>9.4</ele>
        <time>2019-04-17T21:48:11Z</time>
      </trkpt>
      <trkpt lat="51.231102855624" lon="4.463228226333">
        <ele>4</ele>
        <time>2019-04-17T21:48:49Z</time>
      </trkpt>
      <trkpt lat="51.230938318927" lon="4.463315901007">
        <ele>11.4</ele>
        <time>2019-04-17T21:49:07Z</time>
      </trkpt>
      <trkpt lat="51.230744780856" lon="4.463345153838">
        <ele>20.6</ele>
        <time>2019-04-17T21:49:25Z</time>
      </trkpt>
      <trkpt lat="51.230412941435" lon="4.46344389262">
        <ele>24.4</ele>
        <time>2019-04-17T21:49:59Z</time>
      </trkpt>
      <trkpt lat="51.230370780478" lon="4.463640112899">
        <ele>11.2</ele>
        <time>2019-04-17T21:50:18Z</time>
      </trkpt>
      <trkpt lat="51.230333313385" lon="4.463784449217">
        <ele>10.2</ele>
        <time>2019-04-17T21:50:31Z</time>
      </trkpt>
      <trkpt lat="51.23024907529" lon="4.463971365587">
        <ele>7.6</ele>
        <time>2019-04-17T21:50:48Z</time>
      </trkpt>
      <trkpt lat="51.230137176925" lon="4.464010760517">
        <ele>9.4</ele>
        <time>2019-04-17T21:51:00Z</time>
      </trkpt>
      <trkpt lat="51.229852946696" lon="4.464257020739">
        <ele>12</ele>
        <time>2019-04-17T21:51:35Z</time>
      </trkpt>
      <trkpt lat="51.229393702395" lon="4.464199520905">
        <ele>7.8</ele>
        <time>2019-04-17T21:52:13Z</time>
      </trkpt>
      <trkpt lat="51.229063958449" lon="4.464099105743">
        <ele>8</ele>
        <time>2019-04-17T21:52:54Z</time>
      </trkpt>
      <trkpt lat="51.229084410285" lon="4.463795178049">
        <ele>4</ele>
        <time>2019-04-17T21:53:21Z</time>
      </trkpt>
      <trkpt lat="51.228996400335" lon="4.463088583879">
        <ele>5</ele>
        <time>2019-04-17T21:53:58Z</time>
      </trkpt>
      <trkpt lat="51.22900436314" lon="4.462371260877">
        <ele>0</ele>
        <time>2019-04-17T21:54:38Z</time>
      </trkpt>
      <trkpt lat="51.22895910088" lon="4.461968929677">
        <ele>1.4</ele>
        <time>2019-04-17T21:55:03Z</time>
      </trkpt>
      <trkpt lat="51.228845358497" lon="4.461852085991">
        <ele>0.8</ele>
        <time>2019-04-17T21:55:22Z</time>
      </trkpt>
      <trkpt lat="51.228749972475" lon="4.461865497031">
        <ele>0</ele>
        <time>2019-04-17T21:55:36Z</time>
      </trkpt>
      <trkpt lat="51.228463479133" lon="4.461734990848">
        <ele>1</ele>
        <time>2019-04-17T21:56:03Z</time>
      </trkpt>
      <trkpt lat="51.228439003985" lon="4.461036108026">
        <ele>20</ele>
        <time>2019-04-17T21:56:36Z</time>
      </trkpt>
      <trkpt lat="51.228184194225" lon="4.460674177584">
        <ele>12</ele>
        <time>2019-04-17T21:57:27Z</time>
      </trkpt>
      <trkpt lat="51.228180087094" lon="4.460502851548">
        <ele>6</ele>
        <time>2019-04-17T21:57:38Z</time>
      </trkpt>
      <trkpt lat="51.228243538077" lon="4.460144609142">
        <ele>3.6</ele>
        <time>2019-04-17T21:58:01Z</time>
      </trkpt>
      <trkpt lat="51.228279580247" lon="4.459979066617">
        <ele>0.8</ele>
        <time>2019-04-17T21:58:12Z</time>
      </trkpt>
      <trkpt lat="51.228444703677" lon="4.459336091068">
        <ele>2.2</ele>
        <time>2019-04-17T21:59:04Z</time>
      </trkpt>
      <trkpt lat="51.22844529041" lon="4.459279094148">
        <ele>1.8</ele>
        <time>2019-04-17T21:59:07Z</time>
      </trkpt>
      <trkpt lat="51.228483763331" lon="4.458590521063">
        <ele>3.4</ele>
        <time>2019-04-17T21:59:49Z</time>
      </trkpt>
      <trkpt lat="51.228558362241" lon="4.458290113767">
        <ele>4.8</ele>
        <time>2019-04-17T22:00:11Z</time>
      </trkpt>
      <trkpt lat="51.228667997493" lon="4.458115854066">
        <ele>3.6</ele>
        <time>2019-04-17T22:00:30Z</time>
      </trkpt>
      <trkpt lat="51.22881241763" lon="4.458108142718">
        <ele>0</ele>
        <time>2019-04-17T22:00:46Z</time>
      </trkpt>
      <trkpt lat="51.229061862974" lon="4.458127504907">
        <ele>7.2</ele>
        <time>2019-04-17T22:01:15Z</time>
      </trkpt>
      <trkpt lat="51.229500320163" lon="4.457986772806">
        <ele>9.4</ele>
        <time>2019-04-17T22:01:59Z</time>
      </trkpt>
      <trkpt lat="51.229615236012" lon="4.457932122818">
        <ele>9.6</ele>
        <time>2019-04-17T22:02:59Z</time>
      </trkpt>
    </trkseg>
  </trk>
</gpx>